Latest Coastal Weather Observations for Kalumburu

IDW60701

Issued at 1:42 pm WST Wednesday 27 May 2015 (issued every 10 minutes, with the page automatically refreshed every 10 minutes)

About coastal observations | Map of coastal stations | Coastal observations for WA | Marine services | Other Formats
Station Details ID: 001019 Name: KALUMBURU Lat: -14.30 Lon: 126.65 Height: 23.0 m
Data from the previous 72 hours. | See also: Recent months at Kalumburu
Date/Time
WST
Temp

°C
Wind Pressure Rain
since 9am
mm
Weather Cloud Vis
km
Sea
Height
m
Swell
Dir
 
Speed
knots
Gust
knots
hPa Trend Height
m
Period
s
Dir
27/01:30pm 34.8 NE 7 13 1010.8 - 0.0 - - - - - - -
27/01:00pm 35.3 NE 7 11 1011.0 - 0.0 - - - - - - -
27/12:30pm 35.2 ENE 8 13 1011.4 - 0.0 - - - - - - -
27/12:00pm 35.0 E 7 15 1012.0 - 0.0 - - - - - - -
27/11:30am 35.2 NE 9 14 1012.6 - 0.0 - - - - - - -
27/11:00am 34.0 E 7 12 1013.1 - 0.0 - - - - - - -
27/10:30am 33.6 E 8 13 1013.7 - 0.0 - - - - - - -
27/10:00am 33.3 SE 7 12 1014.1 - 0.0 - - - - - - -
27/09:30am 32.5 ESE 7 9 1014.4 - 0.0 - - - - - - -
27/09:00am 29.8 SW 4 6 1014.7 - 0.0 - - - - - - -
27/08:30am 27.8 S 4 5 1014.8 - 0.0 - - - - - - -
27/08:00am 25.5 S 5 8 1014.8 - 0.0 - - - - - - -
27/07:30am 23.8 S 5 7 1014.5 - 0.0 - - - - - - -
27/07:00am 22.0 S 5 7 1014.2 - 0.0 - - - - - - -
27/06:30am 20.7 SSW 4 6 1013.9 - 0.0 - - - - - - -
27/06:00am 20.1 S 5 6 1013.6 - 0.0 - - - - - - -
27/05:30am 17.4 S 3 6 1013.4 - 0.0 - - - - - - -
27/05:00am 17.3 CALM 0 0 1013.2 - 0.0 - - - - - - -
27/04:30am 17.7 SSW 1 3 1013.1 - 0.0 - - - - - - -
27/04:00am 17.4 SSW 1 4 1013.1 - 0.0 - - - - - - -
27/03:30am 17.5 CALM 0 0 1013.1 - 0.0 - - - - - - -
27/03:00am 17.4 CALM 0 0 1013.2 - 0.0 - - - - - - -
27/02:30am 17.8 CALM 0 0 1013.3 - 0.0 - - - - - - -
27/02:00am 17.8 CALM 0 0 1013.5 - 0.0 - - - - - - -
27/01:30am 17.8 CALM 0 0 1013.9 - 0.0 - - - - - - -
27/01:00am 18.0 S 2 4 1014.3 - 0.0 - - - - - - -
27/12:30am 18.4 CALM 0 0 1014.6 - 0.0 - - - - - - -
27/12:00am 18.8 CALM 0 0 1014.9 - 0.0 - - - - - - -
 
Date/Time
WST
Temp

°C
Wind Pressure Rain
since 9am
mm
Weather Cloud Vis
km
Sea
Height
m
Swell
Dir
 
Speed
knots
Gust
knots
hPa Trend Height
m
Period
s
Dir
26/11:30pm 18.8 CALM 0 0 1015.3 - 0.0 - - - - - - -
26/11:00pm 19.6 CALM 0 0 1015.5 - 0.0 - - - - - - -
26/10:30pm 19.6 CALM 0 0 1015.9 - 0.0 - - - - - - -
26/10:00pm 19.8 CALM 0 3 1016.0 - 0.0 - - - - - - -
26/09:30pm 21.2 CALM 0 0 1016.1 - 0.0 - - - - - - -
26/09:00pm 21.5 CALM 0 0 1015.9 - 0.0 - - - - - - -
26/08:30pm 22.3 CALM 0 0 1015.8 - 0.0 - - - - - - -
26/08:00pm 23.1 CALM 0 0 1015.7 - 0.0 - - - - - - -
26/07:30pm 24.2 WSW 1 4 1015.3 - 0.0 - - - - - - -
26/07:00pm 24.8 CALM 0 0 1014.9 - 0.0 - - - - - - -
26/06:30pm 25.8 CALM 0 3 1014.4 - 0.0 - - - - - - -
26/06:00pm 26.3 ESE 3 4 1014.1 - 0.0 - - - - - - -
26/05:30pm 29.1 ENE 4 5 1013.7 - 0.0 - - - - - - -
26/05:00pm 31.0 ENE 5 8 1013.3 - 0.0 - - - - - - -
26/04:30pm 32.5 ENE 5 7 1013.1 - 0.0 - - - - - - -
26/04:00pm 33.2 ENE 5 10 1012.7 - 0.0 - - - - - - -
26/03:30pm 34.0 ENE 5 10 1012.4 - 0.0 - - - - - - -
26/03:00pm 34.1 ENE 7 11 1012.4 - 0.0 - - - - - - -
26/02:30pm 34.5 NE 7 12 1012.5 - 0.0 - - - - - - -
26/02:00pm 34.3 ENE 7 12 1012.6 - 0.0 - - - - - - -
26/01:30pm 34.9 ENE 6 9 1012.9 - 0.0 - - - - - - -
26/01:00pm 34.7 E 7 14 1013.2 - 0.0 - - - - - - -
26/12:30pm 34.2 NE 8 14 1013.7 - 0.0 - - - - - - -
26/12:00pm 34.0 E 7 13 1014.3 - 0.0 - - - - - - -
26/11:30am 33.6 E 8 13 1014.9 - 0.0 - - - - - - -
26/11:00am 33.6 ESE 9 15 1015.4 - 0.0 - - - - - - -
26/10:30am 33.0 ESE 6 11 1016.1 - 0.0 - - - - - - -
26/10:00am 33.1 E 5 7 1016.6 - 0.0 - - - - - - -
26/09:30am 32.0 ESE 5 10 1016.9 - 0.0 - - - - - - -
26/09:00am 28.4 WSW 3 5 1016.9 - 0.0 - - - - - - -
26/08:30am 26.6 SW 3 4 1016.9 - 0.0 - - - - - - -
26/08:00am 24.9 SW 4 5 1016.9 - 0.0 - - - - - - -
26/07:30am 23.0 SSW 3 4 1016.8 - 0.0 - - - - - - -
26/07:00am 20.5 SSW 4 5 1016.7 - 0.0 - - - - - - -
26/06:30am 17.6 SSW 4 6 1016.5 - 0.0 - - - - - - -
26/06:00am 15.0 SW 1 4 1016.2 - 0.0 - - - - - - -
26/05:30am 14.7 CALM 0 0 1015.8 - 0.0 - - - - - - -
26/05:00am 13.9 CALM 0 0 1015.6 - 0.0 - - - - - - -
26/04:30am 13.9 CALM 0 0 1015.3 - 0.0 - - - - - - -
26/04:00am 13.7 N 2 4 1015.2 - 0.0 - - - - - - -
26/03:30am 13.8 CALM 0 0 1015.2 - 0.0 - - - - - - -
26/03:00am 14.1 CALM 0 0 1015.3 - 0.0 - - - - - - -
26/02:30am 14.1 CALM 0 0 1015.3 - 0.0 - - - - - - -
26/02:00am 14.4 CALM 0 3 1015.5 - 0.0 - - - - - - -
26/01:30am 14.5 CALM 0 0 1015.7 - 0.0 - - - - - - -
26/01:00am 15.2 CALM 0 0 1016.0 - 0.0 - - - - - - -
26/12:30am 15.5 CALM 0 0 1016.1 - 0.0 - - - - - - -
26/12:00am 15.9 CALM 0 0 1016.3 - 0.0 - - - - - - -
 
Date/Time
WST
Temp

°C
Wind Pressure Rain
since 9am
mm
Weather Cloud Vis
km
Sea
Height
m
Swell
Dir
 
Speed
knots
Gust
knots
hPa Trend Height
m
Period
s
Dir
25/11:30pm 16.4 CALM 0 0 1016.4 - 0.0 - - - - - - -
25/11:00pm 17.3 CALM 0 0 1016.6 - 0.0 - - - - - - -
25/10:30pm 17.9 SSE 3 4 1016.8 - 0.0 - - - - - - -
25/10:00pm 19.5 SSW 4 7 1016.9 - 0.0 - - - - - - -
25/09:30pm 18.4 SW 1 4 1017.0 - 0.0 - - - - - - -
25/09:00pm 19.4 CALM 0 0 1016.9 - 0.0 - - - - - - -
25/08:30pm 20.4 NE 3 6 1016.7 - 0.0 - - - - - - -
25/08:00pm 23.0 ENE 1 3 1016.7 - 0.0 - - - - - - -
25/07:30pm 23.1 CALM 0 0 1016.3 - 0.0 - - - - - - -
25/07:00pm 25.6 NE 4 5 1015.9 - 0.0 - - - - - - -
25/06:30pm 24.3 ENE 4 6 1015.5 - 0.0 - - - - - - -
25/06:00pm 24.3 ESE 4 4 1015.0 - 0.0 - - - - - - -
25/05:30pm 27.1 ENE 4 7 1014.6 - 0.0 - - - - - - -
25/05:00pm 29.1 ENE 5 10 1014.3 - 0.0 - - - - - - -
25/04:30pm 30.9 E 5 7 1013.8 - 0.0 - - - - - - -
25/04:00pm 32.0 ENE 6 9 1013.4 - 0.0 - - - - - - -
25/03:30pm 32.5 E 6 10 1013.2 - 0.0 - - - - - - -
25/03:00pm 33.1 ENE 6 10 1013.2 - 0.0 - - - - - - -
25/02:30pm 33.2 ENE 7 12 1013.2 - 0.0 - - - - - - -
25/02:00pm 33.0 NE 6 10 1013.3 - 0.0 - - - - - - -
25/01:30pm 33.1 ENE 7 11 1013.4 - 0.0 - - - - - - -
25/01:00pm 33.0 ENE 7 17 1013.9 - 0.0 - - - - - - -
25/12:30pm 33.0 E 7 12 1014.4 - 0.0 - - - - - - -
25/12:00pm 32.7 ENE 9 15 1014.8 - 0.0 - - - - - - -
25/11:30am 32.5 ENE 7 13 1015.3 - 0.0 - - - - - - -
25/11:00am 31.3 ESE 9 15 1015.7 - 0.0 - - - - - - -
25/10:30am 31.1 E 8 13 1016.2 - 0.0 - - - - - - -
25/10:00am 30.6 E 8 14 1016.7 - 0.0 - - - - - - -
25/09:30am 29.7 E 7 13 1017.1 - 0.0 - - - - - - -
25/09:00am 28.8 SE 7 11 1017.3 - 0.0 - - - - - - -
25/08:30am 27.6 SE 5 8 1017.3 - 0.0 - - - - - - -
25/08:00am 25.7 SSE 5 8 1017.5 - 0.0 - - - - - - -
25/07:30am 22.9 SSW 4 5 1017.3 - 0.0 - - - - - - -
25/07:00am 20.0 S 4 6 1017.1 - 0.0 - - - - - - -
25/06:30am 17.6 SSW 3 5 1016.8 - 0.0 - - - - - - -
25/06:00am 16.4 S 5 7 1016.5 - 0.0 - - - - - - -
25/05:30am 14.9 S 5 8 1015.9 - 0.0 - - - - - - -
25/05:00am 12.2 SE 2 4 1015.4 - 0.0 - - - - - - -
25/04:30am 12.1 ESE 2 5 1015.2 - 0.0 - - - - - - -
25/04:00am 12.0 ESE 3 4 1015.4 - 0.0 - - - - - - -
25/03:30am 12.3 CALM 0 0 1015.3 - 0.0 - - - - - - -
25/03:00am 12.7 CALM 0 0 1015.1 - 0.0 - - - - - - -
25/02:30am 12.9 CALM 0 0 1015.1 - 0.0 - - - - - - -
25/02:00am 13.2 CALM 0 0 1015.2 - 0.0 - - - - - - -
25/01:30am 13.5 CALM 0 0 1015.4 - 0.0 - - - - - - -
25/01:00am 13.9 CALM 0 0 1015.5 - 0.0 - - - - - - -
25/12:30am 14.5 CALM 0 0 1015.8 - 0.0 - - - - - - -
25/12:00am 14.9 CALM 0 0 1015.7 - 0.0 - - - - - - -
 
Date/Time
WST
Temp

°C
Wind Pressure Rain
since 9am
mm
Weather Cloud Vis
km
Sea
Height
m
Swell
Dir
 
Speed
knots
Gust
knots
hPa Trend Height
m
Period
s
Dir
24/11:30pm 15.3 CALM 0 0 1015.9 - 0.0 - - - - - - -
24/11:00pm 16.1 SSE 3 5 1016.1 - 0.0 - - - - - - -
24/10:30pm 16.2 NW 1 4 1016.2 - 0.0 - - - - - - -
24/10:00pm 17.5 CALM 0 0 1016.1 - 0.0 - - - - - - -
24/09:30pm 18.2 W 1 4 1016.4 - 0.0 - - - - - - -
24/09:00pm 18.8 SW 3 4 1016.2 - 0.0 - - - - - - -
24/08:30pm 19.7 CALM 0 0 1016.0 - 0.0 - - - - - - -
24/08:00pm 22.9 W 1 4 1015.9 - 0.0 - - - - - - -
24/07:30pm 23.4 CALM 0 0 1015.5 - 0.0 - - - - - - -
24/07:00pm 24.8 ENE 5 7 1014.9 - 0.0 - - - - - - -
24/06:30pm 24.1 E 4 6 1014.6 - 0.0 - - - - - - -
24/06:00pm 24.4 E 4 5 1014.0 - 0.0 - - - - - - -
24/05:30pm 26.3 E 4 6 1013.8 - 0.0 - - - - - - -
24/05:00pm 29.2 ENE 4 5 1013.3 - 0.0 - - - - - - -
24/04:30pm 30.9 ENE 4 7 1013.0 - 0.0 - - - - - - -
24/04:00pm 32.0 E 5 7 1012.8 - 0.0 - - - - - - -
24/03:30pm 32.2 E 5 9 1012.6 - 0.0 - - - - - - -
24/03:00pm 32.5 E 5 9 1012.5 - 0.0 - - - - - - -
24/02:30pm 32.7 E 6 9 1012.4 - 0.0 - - - - - - -
24/02:00pm 32.9 NE 6 9 1012.5 - 0.0 - - - - - - -

Other Formats:

Comma delimited format used in spreadsheet applications
http://www.bom.gov.au/fwo/IDW60701/IDW60701.94100.axf

JavaScript Object Notation format (JSON) in row-major order
http://www.bom.gov.au/fwo/IDW60701/IDW60701.94100.json